sensor_id;sensor_type;location;lat;lon;timestamp;pressure;altitude;pressure_sealevel;temperature;humidity
24996;BME280;13016;52.162;21.034;2023-05-20T00:05:21;101534.67;;;19.97;57.67
24996;BME280;13016;52.162;21.034;2023-05-20T00:11:21;101534.98;;;19.75;58.28
24996;BME280;13016;52.162;21.034;2023-05-20T00:17:21;101532.48;;;19.67;58.60
24996;BME280;13016;52.162;21.034;2023-05-20T00:23:22;101524.15;;;19.61;58.86
24996;BME280;13016;52.162;21.034;2023-05-20T00:29:22;101516.75;;;19.56;58.92
24996;BME280;13016;52.162;21.034;2023-05-20T00:35:22;101515.72;;;19.44;58.73
24996;BME280;13016;52.162;21.034;2023-05-20T00:41:22;101516.39;;;19.35;58.79
24996;BME280;13016;52.162;21.034;2023-05-20T00:47:26;101513.36;;;19.24;58.70
24996;BME280;13016;52.162;21.034;2023-05-20T00:53:27;101515.30;;;19.24;59.30
24996;BME280;13016;52.162;21.034;2023-05-20T00:59:27;101514.52;;;19.22;59.17
24996;BME280;13016;52.162;21.034;2023-05-20T01:05:28;101514.30;;;19.16;59.22
24996;BME280;13016;52.162;21.034;2023-05-20T01:11:33;101521.23;;;19.12;59.42
24996;BME280;13016;52.162;21.034;2023-05-20T01:17:45;101523.35;;;19.06;59.15
24996;BME280;13016;52.162;21.034;2023-05-20T01:23:46;101517.81;;;18.95;59.31
24996;BME280;13016;52.162;21.034;2023-05-20T01:29:47;101516.98;;;18.89;59.50
24996;BME280;13016;52.162;21.034;2023-05-20T01:35:48;101515.23;;;18.87;59.73
24996;BME280;13016;52.162;21.034;2023-05-20T01:41:49;101517.58;;;18.89;59.78
24996;BME280;13016;52.162;21.034;2023-05-20T01:47:50;101518.06;;;18.89;59.79
24996;BME280;13016;52.162;21.034;2023-05-20T01:53:50;101514.67;;;18.91;59.90
24996;BME280;13016;52.162;21.034;2023-05-20T01:59:51;101508.91;;;18.92;59.85
24996;BME280;13016;52.162;21.034;2023-05-20T02:05:51;101499.21;;;18.88;59.97
24996;BME280;13016;52.162;21.034;2023-05-20T02:11:51;101503.20;;;18.92;60.26
24996;BME280;13016;52.162;21.034;2023-05-20T02:17:51;101502.06;;;18.86;59.98
24996;BME280;13016;52.162;21.034;2023-05-20T02:23:52;101501.05;;;18.81;59.73
24996;BME280;13016;52.162;21.034;2023-05-20T02:29:52;101503.48;;;18.77;60.01
24996;BME280;13016;52.162;21.034;2023-05-20T02:35:52;101504.63;;;18.78;59.84
24996;BME280;13016;52.162;21.034;2023-05-20T02:41:52;101509.34;;;18.73;59.99
24996;BME280;13016;52.162;21.034;2023-05-20T02:47:53;101504.70;;;18.77;60.03
24996;BME280;13016;52.162;21.034;2023-05-20T02:53:53;101509.94;;;18.81;59.93
24996;BME280;13016;52.162;21.034;2023-05-20T02:59:54;101505.90;;;18.80;59.65
24996;BME280;13016;52.162;21.034;2023-05-20T03:05:54;101508.30;;;18.77;59.70
24996;BME280;13016;52.162;21.034;2023-05-20T03:11:55;101505.35;;;18.74;59.65
24996;BME280;13016;52.162;21.034;2023-05-20T03:17:55;101515.98;;;18.68;59.49
24996;BME280;13016;52.162;21.034;2023-05-20T03:23:55;101515.51;;;18.74;59.93
24996;BME280;13016;52.162;21.034;2023-05-20T03:29:55;101519.79;;;18.72;59.67
24996;BME280;13016;52.162;21.034;2023-05-20T03:35:56;101526.75;;;18.76;59.72
24996;BME280;13016;52.162;21.034;2023-05-20T03:41:56;101521.68;;;18.82;59.54
24996;BME280;13016;52.162;21.034;2023-05-20T03:47:56;101516.06;;;18.83;59.59
24996;BME280;13016;52.162;21.034;2023-05-20T03:53:56;101512.64;;;18.81;59.31
24996;BME280;13016;52.162;21.034;2023-05-20T03:59:56;101513.35;;;18.86;59.35
24996;BME280;13016;52.162;21.034;2023-05-20T04:05:57;101518.51;;;18.91;59.30
24996;BME280;13016;52.162;21.034;2023-05-20T04:11:57;101521.95;;;18.96;59.25
24996;BME280;13016;52.162;21.034;2023-05-20T04:17:57;101519.08;;;19.10;59.21
24996;BME280;13016;52.162;21.034;2023-05-20T04:23:57;101523.50;;;19.22;58.90
24996;BME280;13016;52.162;21.034;2023-05-20T04:29:58;101524.41;;;19.43;58.63
24996;BME280;13016;52.162;21.034;2023-05-20T04:35:58;101527.34;;;19.55;58.16
24996;BME280;13016;52.162;21.034;2023-05-20T04:41:58;101529.98;;;19.75;58.01
24996;BME280;13016;52.162;21.034;2023-05-20T04:47:59;101526.98;;;19.94;57.53
24996;BME280;13016;52.162;21.034;2023-05-20T04:53:59;101523.64;;;20.09;56.95
24996;BME280;13016;52.162;21.034;2023-05-20T04:59:59;101525.04;;;20.22;56.60
24996;BME280;13016;52.162;21.034;2023-05-20T05:06:00;101524.26;;;20.27;56.28
24996;BME280;13016;52.162;21.034;2023-05-20T05:12:00;101529.08;;;20.25;55.53
24996;BME280;13016;52.162;21.034;2023-05-20T05:18:00;101522.82;;;20.35;55.86
24996;BME280;13016;52.162;21.034;2023-05-20T05:24:01;101524.88;;;20.50;54.67
24996;BME280;13016;52.162;21.034;2023-05-20T05:30:02;101527.88;;;20.88;54.36
24996;BME280;13016;52.162;21.034;2023-05-20T05:36:03;101530.54;;;21.31;53.36
24996;BME280;13016;52.162;21.034;2023-05-20T05:42:04;101533.37;;;21.62;51.91
24996;BME280;13016;52.162;21.034;2023-05-20T05:48:04;101530.86;;;21.84;51.38
24996;BME280;13016;52.162;21.034;2023-05-20T05:54:05;101531.67;;;22.32;51.10
24996;BME280;13016;52.162;21.034;2023-05-20T06:00:05;101535.19;;;22.65;49.52
24996;BME280;13016;52.162;21.034;2023-05-20T06:06:06;101535.69;;;23.09;48.31
24996;BME280;13016;52.162;21.034;2023-05-20T06:12:06;101536.75;;;23.61;46.97
24996;BME280;13016;52.162;21.034;2023-05-20T06:18:06;101538.66;;;24.24;45.36
24996;BME280;13016;52.162;21.034;2023-05-20T06:24:07;101535.27;;;24.67;44.74
24996;BME280;13016;52.162;21.034;2023-05-20T06:30:07;101536.69;;;25.52;44.36
24996;BME280;13016;52.162;21.034;2023-05-20T06:36:07;101531.02;;;26.14;42.19
24996;BME280;13016;52.162;21.034;2023-05-20T06:42:08;101527.85;;;26.92;40.78
24996;BME280;13016;52.162;21.034;2023-05-20T06:48:08;101526.48;;;27.54;40.21
24996;BME280;13016;52.162;21.034;2023-05-20T06:54:09;101518.00;;;27.86;38.81
24996;BME280;13016;52.162;21.034;2023-05-20T07:00:09;101512.85;;;27.90;38.45
24996;BME280;13016;52.162;21.034;2023-05-20T07:06:10;101511.13;;;28.09;37.98
24996;BME280;13016;52.162;21.034;2023-05-20T07:12:10;101510.69;;;28.29;37.89
24996;BME280;13016;52.162;21.034;2023-05-20T07:18:10;101506.12;;;27.91;38.15
24996;BME280;13016;52.162;21.034;2023-05-20T07:24:11;101510.02;;;28.45;37.38
24996;BME280;13016;52.162;21.034;2023-05-20T07:30:11;101501.02;;;28.56;37.34
24996;BME280;13016;52.162;21.034;2023-05-20T07:36:12;101498.87;;;28.84;36.51
24996;BME280;13016;52.162;21.034;2023-05-20T07:42:12;101491.08;;;29.14;36.87
24996;BME280;13016;52.162;21.034;2023-05-20T07:48:12;101489.91;;;29.25;36.80
24996;BME280;13016;52.162;21.034;2023-05-20T07:54:12;101485.27;;;29.89;36.00
24996;BME280;13016;52.162;21.034;2023-05-20T08:00:13;101477.23;;;30.08;34.81
24996;BME280;13016;52.162;21.034;2023-05-20T08:06:13;101474.20;;;30.33;34.99
24996;BME280;13016;52.162;21.034;2023-05-20T08:12:13;101474.22;;;30.73;34.52
24996;BME280;13016;52.162;21.034;2023-05-20T08:18:14;101476.46;;;31.01;35.24
24996;BME280;13016;52.162;21.034;2023-05-20T08:24:14;101470.21;;;31.05;33.79
24996;BME280;13016;52.162;21.034;2023-05-20T08:30:15;101469.04;;;30.95;33.62
24996;BME280;13016;52.162;21.034;2023-05-20T08:36:15;101466.86;;;31.27;34.83
24996;BME280;13016;52.162;21.034;2023-05-20T08:42:20;101467.88;;;31.46;33.18
24996;BME280;13016;52.162;21.034;2023-05-20T08:48:29;101465.27;;;31.69;33.41
24996;BME280;13016;52.162;21.034;2023-05-20T08:54:42;101457.80;;;31.73;33.04
24996;BME280;13016;52.162;21.034;2023-05-20T09:00:43;101457.14;;;31.67;33.43
24996;BME280;13016;52.162;21.034;2023-05-20T09:06:44;101453.71;;;31.63;33.82
24996;BME280;13016;52.162;21.034;2023-05-20T09:12:45;101452.67;;;31.66;34.17
24996;BME280;13016;52.162;21.034;2023-05-20T09:18:45;101446.16;;;31.69;34.31
24996;BME280;13016;52.162;21.034;2023-05-20T09:24:47;101441.36;;;31.42;34.04
24996;BME280;13016;52.162;21.034;2023-05-20T09:30:48;101434.34;;;31.00;34.59
24996;BME280;13016;52.162;21.034;2023-05-20T09:36:49;101429.24;;;30.48;35.30
24996;BME280;13016;52.162;21.034;2023-05-20T09:42:52;101425.10;;;30.22;35.04
24996;BME280;13016;52.162;21.034;2023-05-20T09:48:53;101421.63;;;29.95;35.66
24996;BME280;13016;52.162;21.034;2023-05-20T09:54:54;101420.64;;;29.68;35.54
24996;BME280;13016;52.162;21.034;2023-05-20T10:00:55;101413.45;;;28.71;36.80
24996;BME280;13016;52.162;21.034;2023-05-20T10:07:21;101414.45;;;28.66;37.51
24996;BME280;13016;52.162;21.034;2023-05-20T10:20:06;101408.45;;;28.46;38.01
24996;BME280;13016;52.162;21.034;2023-05-20T10:26:07;101410.39;;;28.30;37.92
24996;BME280;13016;52.162;21.034;2023-05-20T10:38:18;101395.44;;;28.50;37.71
24996;BME280;13016;52.162;21.034;2023-05-20T10:44:44;101385.52;;;28.55;37.55
24996;BME280;13016;52.162;21.034;2023-05-20T10:50:45;101377.69;;;28.74;37.83
24996;BME280;13016;52.162;21.034;2023-05-20T10:56:52;101372.89;;;28.86;36.67
24996;BME280;13016;52.162;21.034;2023-05-20T11:02:55;101371.45;;;28.85;37.17
24996;BME280;13016;52.162;21.034;2023-05-20T11:09:03;101364.32;;;28.87;36.92
24996;BME280;13016;52.162;21.034;2023-05-20T11:15:03;101356.74;;;28.94;37.17
24996;BME280;13016;52.162;21.034;2023-05-20T11:21:04;101339.67;;;28.87;36.96
24996;BME280;13016;52.162;21.034;2023-05-20T11:27:08;101333.95;;;28.94;36.61
24996;BME280;13016;52.162;21.034;2023-05-20T11:33:13;101333.17;;;28.86;36.99
24996;BME280;13016;52.162;21.034;2023-05-20T11:39:40;101333.64;;;28.69;37.08
24996;BME280;13016;52.162;21.034;2023-05-20T11:45:42;101335.05;;;28.65;36.88
24996;BME280;13016;52.162;21.034;2023-05-20T11:51:52;101339.00;;;28.83;36.92
24996;BME280;13016;52.162;21.034;2023-05-20T11:57:56;101340.38;;;29.22;36.08
24996;BME280;13016;52.162;21.034;2023-05-20T12:04:00;101338.85;;;29.44;36.00
24996;BME280;13016;52.162;21.034;2023-05-20T12:10:00;101336.30;;;29.31;36.25
24996;BME280;13016;52.162;21.034;2023-05-20T12:16:00;101329.20;;;28.96;36.55
24996;BME280;13016;52.162;21.034;2023-05-20T12:22:01;101325.15;;;28.98;36.25
24996;BME280;13016;52.162;21.034;2023-05-20T12:28:01;101320.64;;;28.92;36.41
24996;BME280;13016;52.162;21.034;2023-05-20T12:34:01;101320.16;;;28.94;36.44
24996;BME280;13016;52.162;21.034;2023-05-20T12:40:02;101323.27;;;28.91;36.75
24996;BME280;13016;52.162;21.034;2023-05-20T12:46:02;101320.36;;;28.76;36.66
24996;BME280;13016;52.162;21.034;2023-05-20T12:52:02;101308.08;;;28.95;36.85
24996;BME280;13016;52.162;21.034;2023-05-20T12:58:03;101302.67;;;29.05;36.63
24996;BME280;13016;52.162;21.034;2023-05-20T13:04:03;101298.06;;;29.03;36.61
24996;BME280;13016;52.162;21.034;2023-05-20T13:10:05;101283.75;;;29.01;36.57
24996;BME280;13016;52.162;21.034;2023-05-20T13:16:05;101283.50;;;28.85;36.80
24996;BME280;13016;52.162;21.034;2023-05-20T13:22:06;101284.20;;;29.00;36.92
24996;BME280;13016;52.162;21.034;2023-05-20T13:34:54;101283.63;;;28.89;36.19
24996;BME280;13016;52.162;21.034;2023-05-20T13:52:12;101266.98;;;29.20;35.83
24996;BME280;13016;52.162;21.034;2023-05-20T13:58:13;101254.80;;;29.13;35.79
24996;BME280;13016;52.162;21.034;2023-05-20T14:04:14;101252.90;;;29.09;36.39
24996;BME280;13016;52.162;21.034;2023-05-20T14:10:14;101245.89;;;29.06;36.55
24996;BME280;13016;52.162;21.034;2023-05-20T14:16:15;101242.02;;;28.93;36.59
24996;BME280;13016;52.162;21.034;2023-05-20T14:22:15;101235.94;;;28.93;36.44
24996;BME280;13016;52.162;21.034;2023-05-20T14:28:23;101237.81;;;29.10;36.68
24996;BME280;13016;52.162;21.034;2023-05-20T14:34:23;101235.64;;;28.95;36.18
24996;BME280;13016;52.162;21.034;2023-05-20T14:40:24;101230.88;;;29.03;36.25
24996;BME280;13016;52.162;21.034;2023-05-20T14:46:24;101226.92;;;29.05;36.16
24996;BME280;13016;52.162;21.034;2023-05-20T14:52:36;101225.27;;;29.00;36.13
24996;BME280;13016;52.162;21.034;2023-05-20T14:58:36;101220.70;;;29.00;35.87
24996;BME280;13016;52.162;21.034;2023-05-20T15:04:43;101220.67;;;29.17;35.67
24996;BME280;13016;52.162;21.034;2023-05-20T15:10:43;101220.45;;;29.19;35.63
24996;BME280;13016;52.162;21.034;2023-05-20T15:22:57;101215.42;;;29.04;35.92
24996;BME280;13016;52.162;21.034;2023-05-20T15:29:18;101210.25;;;29.17;35.46
24996;BME280;13016;52.162;21.034;2023-05-20T15:42:02;101200.25;;;29.19;35.29
24996;BME280;13016;52.162;21.034;2023-05-20T15:48:21;101199.56;;;29.26;34.98
24996;BME280;13016;52.162;21.034;2023-05-20T15:54:21;101196.71;;;29.19;34.65
24996;BME280;13016;52.162;21.034;2023-05-20T16:00:22;101197.56;;;29.16;34.54
24996;BME280;13016;52.162;21.034;2023-05-20T16:06:22;101196.16;;;29.08;34.73
24996;BME280;13016;52.162;21.034;2023-05-20T16:12:23;101193.64;;;28.94;35.17
24996;BME280;13016;52.162;21.034;2023-05-20T16:18:26;101190.30;;;28.82;35.41
24996;BME280;13016;52.162;21.034;2023-05-20T16:24:26;101184.73;;;28.84;35.52
24996;BME280;13016;52.162;21.034;2023-05-20T16:30:30;101188.91;;;28.81;35.55
24996;BME280;13016;52.162;21.034;2023-05-20T17:56:37;101229.95;;;27.45;36.03
24996;BME280;13016;52.162;21.034;2023-05-20T18:09:08;101224.39;;;27.05;36.93
24996;BME280;13016;52.162;21.034;2023-05-20T18:40:00;101236.04;;;27.46;36.31
24996;BME280;13016;52.162;21.034;2023-05-20T18:46:02;101242.19;;;26.95;37.04
24996;BME280;13016;52.162;21.034;2023-05-20T18:52:03;101248.08;;;26.60;37.93
24996;BME280;13016;52.162;21.034;2023-05-20T18:58:09;101243.83;;;26.33;38.38
24996;BME280;13016;52.162;21.034;2023-05-20T19:25:30;101235.03;;;26.02;38.64
24996;BME280;13016;52.162;21.034;2023-05-20T19:44:12;101228.10;;;25.17;39.75
24996;BME280;13016;52.162;21.034;2023-05-20T19:50:33;101222.35;;;25.00;39.71
24996;BME280;13016;52.162;21.034;2023-05-20T19:56:46;101226.52;;;24.92;39.91
24996;BME280;13016;52.162;21.034;2023-05-20T20:02:47;101228.33;;;24.78;40.42
24996;BME280;13016;52.162;21.034;2023-05-20T20:08:47;101228.11;;;24.65;40.48
24996;BME280;13016;52.162;21.034;2023-05-20T20:14:48;101229.66;;;24.51;40.78
24996;BME280;13016;52.162;21.034;2023-05-20T20:20:54;101230.61;;;24.29;41.14
24996;BME280;13016;52.162;21.034;2023-05-20T20:33:28;101231.77;;;23.97;41.61
24996;BME280;13016;52.162;21.034;2023-05-20T20:40:04;101240.86;;;23.91;41.90
24996;BME280;13016;52.162;21.034;2023-05-20T20:46:36;101239.33;;;23.76;42.16
24996;BME280;13016;52.162;21.034;2023-05-20T20:53:13;101240.33;;;23.68;42.43
24996;BME280;13016;52.162;21.034;2023-05-20T21:06:56;101221.29;;;23.38;43.09
24996;BME280;13016;52.162;21.034;2023-05-20T21:19:55;101210.06;;;23.15;43.89
24996;BME280;13016;52.162;21.034;2023-05-20T21:26:13;101214.91;;;23.05;44.14
24996;BME280;13016;52.162;21.034;2023-05-20T21:32:34;101212.14;;;23.00;44.30
24996;BME280;13016;52.162;21.034;2023-05-20T21:38:42;101212.39;;;22.87;44.69
24996;BME280;13016;52.162;21.034;2023-05-20T21:45:03;101219.98;;;22.78;44.85
24996;BME280;13016;52.162;21.034;2023-05-20T21:51:12;101225.79;;;22.64;45.30
24996;BME280;13016;52.162;21.034;2023-05-20T21:57:15;101228.97;;;22.50;45.58
24996;BME280;13016;52.162;21.034;2023-05-20T22:03:45;101223.27;;;22.40;45.85
24996;BME280;13016;52.162;21.034;2023-05-20T22:10:37;101222.14;;;22.28;46.15
24996;BME280;13016;52.162;21.034;2023-05-20T22:23:53;101221.10;;;22.04;46.40
24996;BME280;13016;52.162;21.034;2023-05-20T22:34:43;101217.52;;;21.89;46.49
24996;BME280;13016;52.162;21.034;2023-05-20T22:40:45;101215.64;;;21.84;46.39
24996;BME280;13016;52.162;21.034;2023-05-20T22:47:18;101210.02;;;21.73;46.29
24996;BME280;13016;52.162;21.034;2023-05-20T22:53:22;101210.48;;;21.64;46.20
24996;BME280;13016;52.162;21.034;2023-05-20T22:59:45;101208.44;;;21.67;45.92
24996;BME280;13016;52.162;21.034;2023-05-20T23:23:36;101210.14;;;22.02;44.62
24996;BME280;13016;52.162;21.034;2023-05-20T23:30:10;101206.85;;;21.80;44.24
24996;BME280;13016;52.162;21.034;2023-05-20T23:36:13;101208.48;;;21.59;44.57
24996;BME280;13016;52.162;21.034;2023-05-20T23:42:13;101205.01;;;21.46;44.78
24996;BME280;13016;52.162;21.034;2023-05-20T23:48:14;101204.38;;;21.40;44.97
24996;BME280;13016;52.162;21.034;2023-05-20T23:54:14;101200.49;;;21.29;45.09
